Share

Mobridge, SD

Mobridge Municipal (KMBG) Elev 1716 ft | 45.55 °N, 100.41 °W | Change Station

Current weather conditions updated 23 minutes ago

Clear
Clear
43 °F
Feels Like 34 °F
N
23
Wind Variable Wind from SE
Sunrise 6:50 AM
Sunset 8:31 PM
Moon Waning Gibbous

Today is forecast to be Much Warmer than yesterday.

Pressure 29.97 in
Visibility 10.0 miles
Clouds Clear
Windchill 34 °F
Dew Point 29 °F
Humidity 58%
Rainfall 0.00 in
Snow Depth Not available.
UV 3 out of 16
Pollen 9.60 out of 12
Air Quality Not available.
Flu Activity Sporadic
METAR KMBG 181452Z AUTO 13020KT 10SM CLR 06/M02 A2993 RMK AO2 PK WND 13028/1421 SLP147 T00611017 58014

More Conditions Fewer Conditions

Pressure 29.97 in
Visibility 10.0 miles
Clouds Clear
Windchill 34 °F
Dew Point 29 °F
Humidity 58%
Rainfall 0.00 in
Snow Depth Not available.
UV 3 out of 16
Pollen 9.60 out of 12
Air Quality Not available.
Flu Activity Sporadic
METAR KMBG 181452Z AUTO 13020KT 10SM CLR 06/M02 A2993 RMK AO2 PK WND 13028/1421 SLP147 T00611017 58014

More Conditions Fewer Conditions

10-Day Forecast

Almanac

Astronomy

Apr. 18, 2014 Rise Set
Actual Time 6:50 AM CDT 8:31 PM CDT
Civil Twilight 6:19 AM CDT 9:03 PM CDT
Nautical Twilight 5:41 AM CDT 9:41 PM CDT
Astronomical Twilight 5:00 AM CDT 10:23 PM CDT
Moon No Moon Rise 9:07 AM CDT
Length of Visible Light 14h 43m
Length of Day
13h 41m
Tomorrow will be 3m 2s longer.
Waning Gibbous, 87% of the Moon is Illuminated
Today
Waning Gibbous
Apr 22
Last Quarter
Apr 29
New
May 6
First Quarter
May 14
Full

Today's Extremes

State Highs State Lows

Community

  • What's for Lunch?
    What's for Lunch?
  • SUNRISE THROUGH THE TREES.
    SUNRISE THROUGH THE TREES.
  • Dog Wood Blossoms
    Dog Wood Blossoms
  • Morning Light
    Morning Light
  • New Day
    New Day

WunderPhotos

Upload Photos

1,702,395 photos uploaded!

Nearby

Snow Depth

Station Depth Elevation
North Rapid Creek 22 in 6130 ft
Blind Park 24 in 6890 ft

Coastal Water Temperatures

Place Temperature
No Stations Reporting

Earthquake Activity

City Distance Mag. Time & Date
No recent earthquake activity has been reported nearby.
Minimum magnitude displayed is 2.5.

Nearby Weather Stations

Station Location Temp. Windchill Dew Point Humidity Wind Precip. Elev Updated Type
NCSD Skywarn, Mobridge, SD 45.9 °F 41 °F 32 °F 58% SW  at  10.7 mph 0.00 in / hr 1686 ft 10:15 AM CDT Rapid Fire
HADS OAK CREEK NEAR WAKPALA SD, Wakpala, SD 35 °F 35 °F - - North  at  - 0.00 in / hr 1689 ft 6:45 AM MDT MADIS

Show More Stations Show Fewer Stations

What do you think?

We're not finished. Please let us know what you like, what you don't like, and what you are still missing.